Time;durP1;ratioP1;P1;durP2;ratioP2;P2;SDS_P1;SDS_P2;PMS_P1;PMS_P2;Temp;Humidity;BMP_temperature;BMP_pressure;BME280_temperature;BME280_humidity;BME280_pressure;Samples;Min_cycle;Max_cycle;Signal;HPM_P1;HPM_P2
2021/08/20 00:01:16;;;;;;;8.85;6.30;;;;;;;;;;3566988;40;20053;-68
2021/08/20 00:03:42;;;;;;;10.23;6.43;;;;;;;;;;3566628;40;20421;-68
2021/08/20 00:06:08;;;;;;;11.43;6.57;;;;;;;;;;3567412;40;20107;-68
2021/08/20 00:08:33;;;;;;;10.13;6.43;;;;;;;;;;3566913;40;20077;-68
2021/08/20 00:11:03;;;;;;;9.82;5.63;;;;;;;;;;3566914;40;20084;-68
2021/08/20 00:13:29;;;;;;;7.35;5.32;;;;;;;;;;3566415;40;20049;-68
2021/08/20 00:15:55;;;;;;;10.05;6.05;;;;;;;;;;3567027;40;20055;-68
2021/08/20 00:18:20;;;;;;;10.80;6.43;;;18.20;99.90;;;;;;3566687;40;20030;-66
2021/08/20 00:20:46;;;;;;;8.07;5.47;;;17.60;99.90;;;;;;3566518;40;20143;-66
2021/08/20 00:23:12;;;;;;;9.48;5.93;;;;;;;;;;3567220;40;20040;-66
2021/08/20 00:25:38;;;;;;;8.27;5.63;;;;;;;;;;3567010;40;20013;-66
2021/08/20 00:28:04;;;;;;;9.32;5.95;;;;;;;;;;3566065;40;20311;-66
2021/08/20 00:30:30;;;;;;;9.30;5.80;;;;;;;;;;3565185;40;20057;-66
2021/08/20 00:32:56;;;;;;;9.10;6.25;;;;;;;;;;3567034;40;20032;-67
2021/08/20 00:35:22;;;;;;;8.90;5.70;;;;;;;;;;3556354;40;20029;-67
2021/08/20 00:37:48;;;;;;;10.15;6.65;;;;;;;;;;3564507;40;20627;-67
2021/08/20 00:40:16;;;;;;;9.85;6.10;;;;;;;;;;3566856;40;20778;-66
2021/08/20 00:42:42;;;;;;;9.90;6.63;;;;;;;;;;3566451;40;20045;-67
2021/08/20 00:45:08;;;;;;;10.93;6.75;;;;;;;;;;3556213;40;20029;-67
2021/08/20 00:47:35;;;;;;;14.15;7.30;;;;;;;;;;3564833;40;20041;-67
2021/08/20 00:50:01;;;;;;;11.85;7.60;;;;;;;;;;3566533;40;20037;-67
2021/08/20 00:52:26;;;;;;;11.02;6.97;;;;;;;;;;3564391;40;20038;-67
2021/08/20 00:54:52;;;;;;;10.05;6.82;;;;;;;;;;3565419;40;20335;-67
2021/08/20 00:57:18;;;;;;;11.80;7.32;;;;;;;;;;3566055;40;20029;-67
2021/08/20 00:59:45;;;;;;;11.90;7.53;;;;;;;;;;3573017;40;20046;-67
2021/08/20 01:02:11;;;;;;;12.38;6.82;;;;;;;;;;3565939;40;20037;-67
2021/08/20 01:04:37;;;;;;;10.35;7.32;;;;;;;;;;3565105;40;20647;-66
2021/08/20 01:07:03;;;;;;;13.13;7.53;;;18.10;99.90;;;;;;3565218;40;20037;-67
2021/08/20 01:09:29;;;;;;;11.88;7.60;;;;;;;;;;3572555;40;20139;-67
2021/08/20 01:11:55;;;;;;;11.90;7.07;;;;;;;;;;3564756;40;20037;-66
2021/08/20 01:14:21;;;;;;;10.07;6.82;;;16.60;99.90;;;;;;3566132;40;20040;-66
2021/08/20 01:16:47;;;;;;;10.20;6.97;;;;;;;;;;3565647;40;20040;-67
2021/08/20 01:19:14;;;;;;;13.38;8.23;;;;;;;;;;3572334;40;20038;-67
2021/08/20 01:21:40;;;;;;;13.32;7.35;;;;;;;;;;3564970;40;20032;-67
2021/08/20 01:24:07;;;;;;;11.35;7.10;;;;;;;;;;3564706;40;20025;-67
2021/08/20 01:26:33;;;;;;;11.02;7.57;;;;;;;;;;3557169;40;20033;-67
2021/08/20 01:29:00;;;;;;;10.43;7.28;;;;;;;;;;3564539;40;20092;-66
2021/08/20 01:31:27;;;;;;;13.60;8.82;;;;;;;;;;3565220;40;20307;-67
2021/08/20 01:33:54;;;;;;;19.45;10.25;;;;;;;;;;3565375;40;20096;-67
2021/08/20 01:36:19;;;;;;;13.05;9.05;;;16.90;99.90;;;;;;3567419;40;20035;-67
2021/08/20 01:38:45;;;;;;;19.85;10.68;;;;;;;;;;3566105;40;20037;-67
2021/08/20 01:41:11;;;;;;;18.35;9.13;;;;;;;;;;3566120;40;20040;-67
2021/08/20 01:43:38;;;;;;;16.42;10.07;;;;;;;;;;3564777;40;20042;-67
2021/08/20 01:46:05;;;;;;;18.10;10.60;;;;;;;;;;3566176;40;20122;-67
2021/08/20 01:48:31;;;;;;;19.50;10.73;;;;;;;;;;3565935;40;20045;-67
2021/08/20 01:50:58;;;;;;;17.85;11.00;;;;;;;;;;3565618;40;20037;-67
2021/08/20 01:53:24;;;;;;;18.85;11.52;;;;;;;;;;3564231;40;20119;-66
2021/08/20 01:55:52;;;;;;;18.10;11.30;;;;;;;;;;3564824;40;20037;-67
2021/08/20 01:58:18;;;;;;;21.13;11.80;;;;;;;;;;3566436;40;20032;-66
2021/08/20 02:00:44;;;;;;;19.30;11.40;;;;;;;;;;3565850;40;20125;-67
2021/08/20 02:03:17;;;;;;;16.33;10.30;;;;;;;;;;3565183;40;20057;-67
2021/08/20 02:05:43;;;;;;;17.13;10.30;;;;;;;;;;3566170;40;20284;-66
2021/08/20 02:08:09;;;;;;;15.68;9.02;;;;;;;;;;3564798;40;20640;-66
2021/08/20 02:10:35;;;;;;;16.70;9.40;;;;;;;;;;3564468;40;20040;-67
2021/08/20 02:13:01;;;;;;;19.05;8.88;;;;;;;;;;3566467;40;20037;-66
2021/08/20 02:15:30;;;;;;;14.55;8.57;;;;;;;;;;3566934;40;20058;-67
2021/08/20 02:17:56;;;;;;;14.30;8.60;;;;;;;;;;3565251;40;20039;-66
2021/08/20 02:20:25;;;;;;;14.48;8.10;;;;;;;;;;3565384;40;20046;-67
2021/08/20 02:22:51;;;;;;;17.77;8.27;;;;;;;;;;3565258;40;20573;-66
2021/08/20 02:25:17;;;;;;;17.60;9.70;;;;;;;;;;3563817;40;20037;-67
2021/08/20 02:27:47;;;;;;;14.10;8.73;;;;;;;;;;3564641;40;20037;-66
2021/08/20 02:30:14;;;;;;;16.73;8.95;;;;;;;;;;3562706;40;20050;-67
2021/08/20 02:32:47;;;;;;;13.77;8.63;;;;;;;;;;3563537;40;20870;-67
2021/08/20 02:35:15;;;;;;;19.40;9.70;;;;;;;;;;3564430;40;20557;-67
2021/08/20 02:37:41;;;;;;;17.23;9.70;;;;;;;;;;3554576;40;20036;-67
2021/08/20 02:40:07;;;;;;;16.85;10.45;;;;;;;;;;3564124;40;20092;-67
2021/08/20 02:42:44;;;;;;;16.65;9.40;;;;;;;;;;3564307;40;20037;-67
2021/08/20 02:45:09;;;;;;;15.55;9.25;;;;;;;;;;3564894;40;20115;-67
2021/08/20 02:47:35;;;;;;;14.07;8.85;;;;;;;;;;3565078;40;20055;-67
2021/08/20 02:50:01;;;;;;;15.13;9.25;;;;;;;;;;3564127;40;20048;-67
2021/08/20 02:52:27;;;;;;;15.32;9.90;;;;;;;;;;3562759;40;20033;-67
2021/08/20 02:54:54;;;;;;;14.63;9.52;;;;;;;;;;3554998;40;20034;-67
2021/08/20 02:57:30;;;;;;;15.65;8.90;;;;;;;;;;3564563;40;20042;-67
2021/08/20 02:59:58;;;;;;;14.90;8.90;;;;;;;;;;3566638;40;20026;-67
2021/08/20 03:02:24;;;;;;;15.95;9.40;;;;;;;;;;3564456;40;20048;-66
2021/08/20 03:04:50;;;;;;;17.33;9.88;;;;;;;;;;3563122;40;20404;-67
2021/08/20 03:07:17;;;;;;;17.33;9.60;;;;;;;;;;3564269;40;20520;-66
2021/08/20 03:09:43;;;;;;;16.55;9.70;;;;;;;;;;3563762;40;20316;-66
2021/08/20 03:12:09;;;;;;;15.02;9.27;;;;;;;;;;3565569;40;20055;-66
2021/08/20 03:14:43;;;;;;;16.88;9.55;;;;;;;;;;3565192;40;20102;-66
2021/08/20 03:17:09;;;;;;;15.65;9.48;;;;;;;;;;3564790;40;20034;-67
2021/08/20 03:19:35;;;;;;;17.20;10.40;;;;;;;;;;3565085;40;20552;-67
2021/08/20 03:22:01;;;;;;;15.02;10.00;;;;;;;;;;3563252;40;20049;-67
2021/08/20 03:24:28;;;;;;;14.80;9.35;;;;;;;;;;3566034;40;20037;-67
2021/08/20 03:26:54;;;;;;;19.27;11.70;;;;;;;;;;3566073;40;20415;-67
2021/08/20 03:29:20;;;;;;;19.83;11.15;;;;;;;;;;3566342;40;20063;-67
2021/08/20 03:32:04;;;;;;;16.98;9.90;;;;;;;;;;3566518;40;20069;-67
2021/08/20 03:34:31;;;;;;;18.05;10.10;;;;;;;;;;3566217;40;20454;-67
2021/08/20 03:36:57;;;;;;;21.48;12.10;;;;;;;;;;3570098;40;20402;-67
2021/08/20 03:39:38;;;;;;;19.17;10.50;;;;;;;;;;3566568;40;20041;-67
2021/08/20 03:42:04;;;;;;;18.10;10.32;;;;;;;;;;3567117;40;20063;-67
2021/08/20 03:44:32;;;;;;;16.67;9.30;;;17.10;99.90;;;;;;3566499;40;20042;-66
2021/08/20 03:46:59;;;;;;;14.07;8.40;;;;;;;;;;3566382;40;20073;-66
2021/08/20 03:49:25;;;;;;;15.55;8.30;;;;;;;;;;3565569;40;20127;-66
2021/08/20 03:51:51;;;;;;;14.70;8.90;;;;;;;;;;3566466;40;20045;-67
2021/08/20 03:54:28;;;;;;;13.00;8.07;;;;;;;;;;3566603;40;20037;-67
2021/08/20 03:56:54;;;;;;;16.52;8.85;;;;;;;;;;3566609;40;20061;-66
2021/08/20 03:59:22;;;;;;;14.65;8.45;;;;;;;;;;3567299;40;20045;-66
2021/08/20 04:01:52;;;;;;;17.50;7.63;;;;;;;;;;3564944;40;20028;-66
2021/08/20 04:04:19;;;;;;;18.73;8.35;;;;;;;;;;3570661;40;20037;-67
2021/08/20 04:06:51;;;;;;;18.55;9.05;;;;;;;;;;3565900;40;20041;-66
2021/08/20 04:09:23;;;;;;;15.32;8.48;;;;;;;;;;3569004;40;20037;-67
2021/08/20 04:11:58;;;;;;;13.57;7.60;;;;;;;;;;3567020;40;20115;-67
2021/08/20 04:14:53;;;;;;;14.67;7.30;;;;;;;;;;3563356;40;20060;-67
2021/08/20 04:17:19;;;;;;;14.18;7.05;;;;;;;;;;3566215;40;20069;-67
2021/08/20 04:19:45;;;;;;;13.40;7.28;;;;;;;;;;3566472;40;20115;-66
2021/08/20 04:22:12;;;;;;;14.73;6.63;;;;;;;;;;3573832;40;21038;-66
2021/08/20 04:24:41;;;;;;;14.10;7.45;;;;;;;;;;3564134;40;20416;-66
2021/08/20 04:27:27;;;;;;;12.82;7.45;;;;;;;;;;3565946;40;20072;-67
2021/08/20 04:30:05;;;;;;;11.27;6.68;;;;;;;;;;3564206;40;20139;-67
2021/08/20 04:33:03;;;;;;;17.92;7.53;;;;;;;;;;3567623;40;20145;-67
2021/08/20 04:35:48;;;;;;;13.68;7.70;;;;;;;;;;3564784;40;20095;-66
2021/08/20 04:38:27;;;;;;;12.07;7.28;;;;;;;;;;3566385;40;20634;-67
2021/08/20 04:41:12;;;;;;;15.63;7.03;;;;;;;;;;3565860;40;20098;-67
2021/08/20 04:43:50;;;;;;;12.90;7.00;;;;;;;;;;3566359;40;20044;-66
2021/08/20 04:46:48;;;;;;;15.15;6.65;;;;;;;;;;3558713;40;20127;-67
2021/08/20 04:49:32;;;;;;;11.32;6.82;;;;;;;;;;3566637;40;20136;-67
2021/08/20 04:52:20;;;;;;;12.30;7.03;;;;;;;;;;3565327;40;20075;-67
2021/08/20 04:55:05;;;;;;;17.67;7.75;;;;;;;;;;3565847;40;20047;-67
2021/08/20 04:57:32;;;;;;;17.35;8.40;;;;;;;;;;3565342;40;20403;-67
2021/08/20 04:59:58;;;;;;;13.57;7.95;;;;;;;;;;3566572;40;20039;-67
2021/08/20 05:02:24;;;;;;;14.25;8.15;;;;;;;;;;3564793;40;20042;-67
2021/08/20 05:04:50;;;;;;;15.20;7.75;;;;;;;;;;3567357;40;20032;-67
2021/08/20 05:07:16;;;;;;;16.23;8.23;;;;;;;;;;3566634;40;20387;-67
2021/08/20 05:09:42;;;;;;;15.38;7.15;;;17.40;99.90;;;;;;3564468;40;20437;-66
2021/08/20 05:12:08;;;;;;;14.63;7.85;;;;;;;;;;3567889;40;20900;-66
2021/08/20 05:14:34;;;;;;;13.27;8.20;;;;;;;;;;3567707;40;20064;-67
2021/08/20 05:16:59;;;;;;;14.27;7.45;;;;;;;;;;3567713;40;20061;-66
2021/08/20 05:19:25;;;;;;;12.18;7.20;;;;;;;;;;3565421;40;20037;-67
2021/08/20 05:21:51;;;;;;;13.60;7.28;;;;;;;;;;3565393;40;20106;-66
2021/08/20 05:24:17;;;;;;;15.48;7.03;;;;;;;;;;3567161;40;20044;-66
2021/08/20 05:26:43;;;;;;;15.80;8.80;;;;;;;;;;3568807;40;20033;-66
2021/08/20 05:29:09;;;;;;;16.08;7.38;;;;;;;;;;3566578;40;20036;-66
2021/08/20 05:31:35;;;;;;;12.60;7.07;;;;;;;;;;3564487;40;20055;-67
2021/08/20 05:34:01;;;;;;;11.68;6.93;;;;;;;;;;3566371;40;20051;-67
2021/08/20 05:36:27;;;;;;;13.13;7.25;;;;;;;;;;3567043;40;20710;-67
2021/08/20 05:38:53;;;;;;;12.40;7.00;;;;;;;;;;3563194;40;20115;-67
2021/08/20 05:41:19;;;;;;;11.70;6.95;;;;;;;;;;3567099;40;20044;-67
2021/08/20 05:43:46;;;;;;;10.35;6.53;;;;;;;;;;3565915;40;20084;-67
2021/08/20 05:46:12;;;;;;;14.40;8.25;;;;;;;;;;3565798;40;20500;-67
2021/08/20 05:48:39;;;;;;;13.40;7.35;;;;;;;;;;3565311;40;20133;-67
2021/08/20 05:51:04;;;;;;;15.23;8.32;;;17.90;99.90;;;;;;3567189;40;20631;-67
2021/08/20 05:53:30;;;;;;;17.05;8.88;;;;;;;;;;3566071;40;20064;-67
2021/08/20 05:55:56;;;;;;;15.48;9.73;;;;;;;;;;3567596;40;20370;-67
2021/08/20 05:58:22;;;;;;;17.10;9.25;;;;;;;;;;3566763;40;20057;-67
2021/08/20 06:00:49;;;;;;;22.90;12.30;;;;;;;;;;3566472;40;20033;-67
2021/08/20 06:03:16;;;;;;;19.40;12.20;;;;;;;;;;3564129;40;20025;-67
2021/08/20 06:05:42;;;;;;;23.15;14.65;;;;;;;;;;3565758;40;20036;-67
2021/08/20 06:08:10;;;;;;;24.00;15.20;;;;;;;;;;3564083;40;20033;-66
2021/08/20 06:10:35;;;;;;;22.10;14.32;;;;;;;;;;3563866;40;20025;-67
2021/08/20 06:13:03;;;;;;;28.10;16.52;;;;;;;;;;3564549;40;20045;-67
2021/08/20 06:15:29;;;;;;;30.45;16.63;;;;;;;;;;3564083;40;20093;-67
2021/08/20 06:17:54;;;;;;;28.77;16.10;;;;;;;;;;3565742;40;20418;-67
2021/08/20 06:20:20;;;;;;;26.48;16.13;;;;;;;;;;3564964;40;20041;-67
2021/08/20 06:22:46;;;;;;;28.02;15.20;;;;;;;;;;3565755;40;20045;-67
2021/08/20 06:25:12;;;;;;;28.75;17.05;;;;;;;;;;3565919;40;20822;-66
2021/08/20 06:27:38;;;;;;;26.45;15.02;;;19.10;99.90;;;;;;3565179;40;20029;-65
2021/08/20 06:30:04;;;;;;;31.45;16.55;;;;;;;;;;3565810;40;20022;-66
2021/08/20 06:32:30;;;;;;;23.48;15.30;;;;;;;;;;3563788;40;20291;-66
2021/08/20 06:34:56;;;;;;;25.90;16.25;;;;;;;;;;3564333;40;20025;-67
2021/08/20 06:37:22;;;;;;;28.33;15.00;;;;;;;;;;3565072;40;20119;-67
2021/08/20 06:39:48;;;;;;;27.08;16.05;;;19.10;99.90;;;;;;3566784;40;20032;-67
2021/08/20 06:42:15;;;;;;;24.50;15.27;;;;;;;;;;3569260;40;20029;-67
2021/08/20 06:44:40;;;;;;;20.60;13.07;;;18.90;99.90;;;;;;3566386;40;20029;-67
2021/08/20 06:47:06;;;;;;;24.55;15.80;;;;;;;;;;3565665;40;20036;-66
2021/08/20 06:49:32;;;;;;;23.40;14.93;;;;;;;;;;3562874;40;20679;-67
2021/08/20 06:51:58;;;;;;;20.27;13.10;;;;;;;;;;3565200;40;20026;-66
2021/08/20 06:54:26;;;;;;;24.65;14.73;;;;;;;;;;3565114;40;20034;-66
2021/08/20 06:56:52;;;;;;;19.60;12.48;;;;;;;;;;3566239;40;20040;-66
2021/08/20 06:59:18;;;;;;;24.90;15.30;;;;;;;;;;3565361;40;20045;-67
2021/08/20 07:01:44;;;;;;;20.73;13.48;;;;;;;;;;3566523;40;20061;-66
2021/08/20 07:04:09;;;;;;;20.70;13.40;;;;;;;;;;3566220;40;20052;-67
2021/08/20 07:06:35;;;;;;;20.08;12.55;;;;;;;;;;3566009;40;20041;-67
2021/08/20 07:09:01;;;;;;;26.38;15.35;;;18.80;99.90;;;;;;3567998;40;20032;-66
2021/08/20 07:11:27;;;;;;;24.35;13.50;;;;;;;;;;3567937;40;20022;-67
2021/08/20 07:13:53;;;;;;;21.02;12.88;;;;;;;;;;3567209;40;20319;-66
2021/08/20 07:16:19;;;;;;;22.80;13.55;;;;;;;;;;3565750;40;20036;-66
2021/08/20 07:18:45;;;;;;;26.00;15.57;;;;;;;;;;3567747;40;20053;-67
2021/08/20 07:21:11;;;;;;;26.20;13.82;;;;;;;;;;3568618;40;20034;-67
2021/08/20 07:23:37;;;;;;;26.58;14.57;;;;;;;;;;3565857;40;20033;-66
2021/08/20 07:26:03;;;;;;;18.88;12.43;;;;;;;;;;3566733;40;20021;-66
2021/08/20 07:28:29;;;;;;;21.52;12.13;;;;;;;;;;3567249;40;20166;-66
2021/08/20 07:30:55;;;;;;;21.98;12.05;;;;;;;;;;3567154;40;20018;-66
2021/08/20 07:33:21;;;;;;;22.77;12.65;;;;;;;;;;3567948;40;20549;-67
2021/08/20 07:35:47;;;;;;;21.52;11.70;;;;;;;;;;3566776;40;20037;-66
2021/08/20 07:38:13;;;;;;;17.65;10.68;;;;;;;;;;3566650;40;20049;-67
2021/08/20 07:40:39;;;;;;;20.80;11.88;;;;;;;;;;3565041;40;20088;-66
2021/08/20 07:43:05;;;;;;;22.48;11.98;;;;;;;;;;3564793;40;20033;-66
2021/08/20 07:45:31;;;;;;;18.77;11.18;;;;;;;;;;3565878;40;20149;-70
2021/08/20 07:47:57;;;;;;;18.15;11.38;;;;;;;;;;3566660;40;20951;-70
2021/08/20 07:50:23;;;;;;;17.85;11.63;;;;;;;;;;3565345;40;20405;-70
2021/08/20 07:52:49;;;;;;;25.33;12.40;;;;;;;;;;3561754;40;20026;-65
2021/08/20 07:55:17;;;;;;;18.88;11.32;;;;;;;;;;3566275;40;20036;-65
2021/08/20 07:57:43;;;;;;;21.85;11.68;;;;;;;;;;3566454;40;20043;-65
2021/08/20 08:00:09;;;;;;;19.40;11.93;;;;;;;;;;3566575;40;20053;-65
2021/08/20 08:02:37;;;;;;;20.27;11.05;;;;;;;;;;3567328;40;20054;-65
2021/08/20 08:05:03;;;;;;;23.67;13.77;;;;;;;;;;3564555;40;20590;-66
2021/08/20 08:07:29;;;;;;;25.88;13.90;;;;;;;;;;3568516;40;20118;-66
2021/08/20 08:09:55;;;;;;;20.98;11.35;;;;;;;;;;3567867;40;20033;-65
2021/08/20 08:12:21;;;;;;;23.52;11.00;;;;;;;;;;3566457;40;20096;-65
2021/08/20 08:14:47;;;;;;;18.92;10.05;;;;;;;;;;3568449;40;20033;-66
2021/08/20 08:17:13;;;;;;;19.63;9.68;;;;;;;;;;3566090;40;20365;-65
2021/08/20 08:19:39;;;;;;;20.25;10.10;;;;;;;;;;3565284;40;20040;-65
2021/08/20 08:22:05;;;;;;;15.77;10.00;;;;;;;;;;3566604;40;20130;-65
2021/08/20 08:24:31;;;;;;;15.63;9.02;;;;;;;;;;3566625;40;20036;-65
2021/08/20 08:26:57;;;;;;;17.45;10.48;;;;;;;;;;3567567;40;20021;-65
2021/08/20 08:29:23;;;;;;;19.85;10.25;;;;;;;;;;3570518;40;20043;-66
2021/08/20 08:31:49;;;;;;;18.10;10.13;;;;;;;;;;3567034;40;20137;-67
2021/08/20 08:34:15;;;;;;;18.42;9.73;;;;;;;;;;3565419;40;20021;-65
2021/08/20 08:36:41;;;;;;;20.40;10.35;;;;;;;;;;3564599;40;20041;-65
2021/08/20 08:39:07;;;;;;;18.45;10.35;;;;;;;;;;3564746;40;20311;-65
2021/08/20 08:41:33;;;;;;;21.65;12.13;;;;;;;;;;3567819;40;20103;-65
2021/08/20 08:43:59;;;;;;;18.85;10.77;;;;;;;;;;3568651;40;20049;-65
2021/08/20 08:46:26;;;;;;;17.85;9.93;;;;;;;;;;3564421;40;20021;-65
2021/08/20 08:48:52;;;;;;;16.65;9.68;;;;;;;;;;3565661;40;20053;-65
2021/08/20 08:51:18;;;;;;;18.08;9.95;;;;;;;;;;3567474;40;20076;-65
2021/08/20 08:53:43;;;;;;;20.90;10.82;;;;;;;;;;3564754;40;20026;-65
2021/08/20 08:56:09;;;;;;;17.65;10.25;;;;;;;;;;3568970;40;20039;-65
2021/08/20 08:58:37;;;;;;;19.83;10.25;;;;;;;;;;3566530;40;20045;-65
2021/08/20 09:01:03;;;;;;;18.63;9.82;;;;;;;;;;3565071;40;20044;-61
2021/08/20 09:03:29;;;;;;;15.90;9.48;;;;;;;;;;3565772;40;20029;-61
2021/08/20 09:05:55;;;;;;;18.40;9.65;;;;;;;;;;3566350;40;20089;-61
2021/08/20 09:08:21;;;;;;;19.50;9.10;;;;;;;;;;3565045;40;20327;-60
2021/08/20 09:10:48;;;;;;;15.75;8.85;;;;;;;;;;3566152;40;20033;-60
2021/08/20 09:13:14;;;;;;;16.13;9.82;;;;;;;;;;3568290;40;20045;-60
2021/08/20 09:15:40;;;;;;;16.13;9.38;;;;;;;;;;3564698;40;20030;-60
2021/08/20 09:18:06;;;;;;;16.80;10.05;;;;;;;;;;3566632;40;20112;-60
2021/08/20 09:20:32;;;;;;;19.88;9.27;;;;;;;;;;3565115;40;20029;-60
2021/08/20 09:22:58;;;;;;;15.80;10.07;;;;;;;;;;3565079;40;20081;-60
2021/08/20 09:25:24;;;;;;;16.30;9.55;;;;;;;;;;3563360;40;20087;-60
2021/08/20 09:27:50;;;;;;;20.40;9.48;;;;;;;;;;3566354;40;20194;-61
2021/08/20 09:30:18;;;;;;;18.48;9.98;;;;;;;;;;3566596;40;20032;-62
2021/08/20 09:32:44;;;;;;;18.17;9.98;;;;;;;;;;3564692;40;20302;-60
2021/08/20 09:35:10;;;;;;;15.65;10.13;;;;;;;;;;3567649;40;20036;-61
2021/08/20 09:37:36;;;;;;;18.48;9.98;;;;;;;;;;3567309;40;20049;-61
2021/08/20 09:40:08;;;;;;;16.52;10.40;;;;;;;;;;3566324;40;20044;-61
2021/08/20 09:42:34;;;;;;;17.88;10.38;;;;;;;;;;3564465;40;20033;-61
2021/08/20 09:45:00;;;;;;;18.55;9.60;;;;;;;;;;3568063;40;20623;-60
2021/08/20 09:47:26;;;;;;;20.10;11.27;;;;;;;;;;3565811;40;20130;-61
2021/08/20 09:49:52;;;;;;;18.30;11.90;;;;;;;;;;3564669;40;20048;-61
2021/08/20 09:52:18;;;;;;;34.78;18.50;;;;;;;;;;3567265;40;20106;-60
2021/08/20 09:54:44;;;;;;;25.20;13.55;;;;;;;;;;3565989;40;20049;-61
2021/08/20 09:57:10;;;;;;;20.77;11.02;;;;;;;;;;3564330;40;20069;-61
2021/08/20 09:59:36;;;;;;;18.23;10.57;;;;;;;;;;3568466;40;20053;-61
2021/08/20 10:02:03;;;;;;;21.15;11.35;;;;;;;;;;3567454;40;20131;-61
2021/08/20 10:04:28;;;;;;;24.02;10.85;;;;;;;;;;3565328;40;20036;-61
2021/08/20 10:06:54;;;;;;;26.08;12.13;;;;;;;;;;3569247;40;20032;-61
2021/08/20 10:09:21;;;;;;;15.07;9.68;;;;;;;;;;3566012;40;20134;-61
2021/08/20 10:11:47;;;;;;;18.30;9.02;;;;;;;;;;3567710;40;20596;-61
2021/08/20 10:14:14;;;;;;;17.67;9.55;;;;;;;;;;3566596;40;20053;-61
2021/08/20 10:16:40;;;;;;;14.63;9.27;;;;;;;;;;3568022;40;20102;-61
2021/08/20 10:19:06;;;;;;;16.70;8.50;;;;;;;;;;3566436;40;20040;-61
2021/08/20 10:21:32;;;;;;;12.80;7.25;;;;;;;;;;3566081;40;20128;-61
2021/08/20 10:23:58;;;;;;;15.35;7.95;;;;;;;;;;3565964;40;20029;-61
2021/08/20 10:26:24;;;;;;;12.32;6.70;;;;;;;;;;3567514;40;20139;-61
2021/08/20 10:28:50;;;;;;;19.38;9.00;;;;;;;;;;3566247;40;20155;-61
2021/08/20 10:31:16;;;;;;;11.18;6.97;;;;;;;;;;3566281;40;20807;-61
2021/08/20 10:33:42;;;;;;;20.70;9.52;;;;;;;;;;3566262;40;20037;-61
2021/08/20 10:36:09;;;;;;;30.58;11.43;;;;;;;;;;3566696;40;20790;-61
2021/08/20 10:38:36;;;;;;;31.30;11.65;;;;;;;;;;3567883;40;20036;-68
2021/08/20 10:41:02;;;;;;;24.05;10.95;;;;;;;;;;3565613;40;20038;-67
2021/08/20 10:43:28;;;;;;;22.23;10.05;;;;;;;;;;3565770;40;20064;-68
2021/08/20 10:45:54;;;;;;;21.52;10.68;;;;;;;;;;3564866;40;20025;-67
2021/08/20 10:48:21;;;;;;;22.10;10.88;;;;;;;;;;3565840;40;20059;-67
2021/08/20 10:50:47;;;;;;;18.02;9.63;;;;;;;;;;3565801;40;20021;-68
2021/08/20 10:53:13;;;;;;;18.08;10.43;;;;;;;;;;3565298;40;20029;-68
2021/08/20 10:55:39;;;;;;;18.42;9.05;;;;;;;;;;3566376;40;20402;-67
2021/08/20 10:58:05;;;;;;;19.13;9.85;;;;;;;;;;3566384;40;20029;-67
2021/08/20 11:00:31;;;;;;;15.30;7.85;;;;;;;;;;3566751;40;20037;-67
2021/08/20 11:02:57;;;;;;;18.88;9.70;;;;;;;;;;3566144;40;20029;-67
2021/08/20 11:05:25;;;;;;;15.85;7.38;;;;;;;;;;3565601;40;20044;-67
2021/08/20 11:07:51;;;;;;;16.27;9.38;;;;;;;;;;3565771;40;20711;-67
2021/08/20 11:10:16;;;;;;;14.88;7.90;;;;;;;;;;3566897;40;20045;-67
2021/08/20 11:12:43;;;;;;;15.35;8.80;;;;;;;;;;3565495;40;20029;-67
2021/08/20 11:15:09;;;;;;;16.80;9.10;;;;;;;;;;3566270;40;20768;-67
2021/08/20 11:17:35;;;;;;;17.60;7.97;;;;;;;;;;3566661;40;20056;-67
2021/08/20 11:20:01;;;;;;;15.77;7.60;;;;;;;;;;3566901;40;20028;-67
2021/08/20 11:22:27;;;;;;;20.83;9.43;;;;;;;;;;3567180;40;20052;-67
2021/08/20 11:24:53;;;;;;;17.70;8.85;;;;;;;;;;3567190;40;20311;-67
2021/08/20 11:27:21;;;;;;;19.80;9.68;;;;;;;;;;3566234;40;20026;-67
2021/08/20 11:29:47;;;;;;;15.75;7.40;;;;;;;;;;3566722;40;20521;-67
2021/08/20 11:32:13;;;;;;;18.13;8.50;;;;;;;;;;3565981;40;20030;-68
2021/08/20 11:34:39;;;;;;;11.55;5.63;;;;;;;;;;3565617;40;20018;-68
2021/08/20 11:37:05;;;;;;;17.10;5.50;;;;;;;;;;3566604;40;20092;-67
2021/08/20 11:39:32;;;;;;;9.60;4.85;;;;;;;;;;3566602;40;20260;-67
2021/08/20 11:41:58;;;;;;;7.68;4.53;;;;;;;;;;3565913;40;20471;-67
2021/08/20 11:44:24;;;;;;;10.85;4.80;;;;;;;;;;3565581;40;20033;-67
2021/08/20 11:46:50;;;;;;;5.95;3.83;;;;;;;;;;3568073;40;20037;-67
2021/08/20 11:49:16;;;;;;;10.45;5.10;;;;;;;;;;3566817;40;20436;-67
2021/08/20 11:51:42;;;;;;;12.23;5.22;;;;;;;;;;3567310;40;20017;-67
2021/08/20 11:54:08;;;;;;;11.05;7.13;;;;;;;;;;3567400;40;20042;-67
2021/08/20 11:56:34;;;;;;;12.55;7.80;;;;;;;;;;3566152;40;20036;-67
2021/08/20 11:59:00;;;;;;;18.35;8.65;;;;;;;;;;3568699;40;20038;-67
2021/08/20 12:01:31;;;;;;;13.25;7.35;;;;;;;;;;3567220;40;20029;-67
2021/08/20 12:03:57;;;;;;;14.15;8.55;;;;;;;;;;3565202;40;20061;-67
2021/08/20 12:06:23;;;;;;;10.75;6.80;;;;;;;;;;3564971;40;20044;-67
2021/08/20 12:08:49;;;;;;;19.30;7.72;;;;;;;;;;3567237;40;20052;-67
2021/08/20 12:11:15;;;;;;;9.43;6.80;;;;;;;;;;3569153;40;20370;-67
2021/08/20 12:13:42;;;;;;;14.45;6.65;;;;;;;;;;3566127;40;20032;-67
2021/08/20 12:16:08;;;;;;;10.35;6.65;;;;;;;;;;3568722;40;20044;-67
2021/08/20 12:18:34;;;;;;;11.27;6.32;;;;;;;;;;3567943;40;20041;-67
2021/08/20 12:21:00;;;;;;;9.93;7.07;;;;;;;;;;3568532;40;20059;-67
2021/08/20 12:23:26;;;;;;;12.25;6.32;;;;;;;;;;3567164;40;20035;-67
2021/08/20 12:25:52;;;;;;;11.20;6.00;;;;;;;;;;3567354;40;20272;-67
2021/08/20 12:28:17;;;;;;;9.40;5.50;;;;;;;;;;3567631;40;20817;-67
2021/08/20 12:30:44;;;;;;;8.45;5.60;;;;;;;;;;3568366;40;20041;-67
2021/08/20 12:33:10;;;;;;;6.30;4.97;;;;;;;;;;3568379;40;20041;-67
2021/08/20 12:35:36;;;;;;;11.20;4.80;;;;;;;;;;3567462;40;20029;-68
2021/08/20 12:38:02;;;;;;;10.00;5.32;;;;;;;;;;3565326;40;20126;-68
2021/08/20 12:40:28;;;;;;;7.32;4.75;;;;;;;;;;3568630;40;20033;-67
2021/08/20 12:42:53;;;;;;;12.43;4.60;;;;;;;;;;3567184;40;20034;-67
2021/08/20 12:45:20;;;;;;;9.32;4.60;;;;;;;;;;3567314;40;20113;-67
2021/08/20 12:47:46;;;;;;;8.30;4.28;;;;;;;;;;3566988;40;20095;-67
2021/08/20 12:50:12;;;;;;;6.35;3.40;;;;;;;;;;3567970;40;20037;-68
2021/08/20 12:52:38;;;;;;;8.38;2.65;;;;;;;;;;3566292;40;20042;-68
2021/08/20 12:55:04;;;;;;;3.67;2.35;;;;;;;;;;3568569;40;20041;-68
2021/08/20 12:57:30;;;;;;;3.88;2.30;;;;;;;;;;3566949;40;20055;-67
2021/08/20 12:59:55;;;;;;;3.25;2.10;;;;;;;;;;3569177;40;20034;-67
2021/08/20 13:02:21;;;;;;;3.85;2.35;;;;;;;;;;3566180;40;20033;-67
2021/08/20 13:04:47;;;;;;;5.38;2.08;;;;;;;;;;3567656;40;20033;-68
2021/08/20 13:07:13;;;;;;;5.60;2.05;;;;;;;;;;3567544;40;20147;-67
2021/08/20 13:09:39;;;;;;;8.52;2.22;;;;;;;;;;3564873;40;20123;-67
2021/08/20 13:12:05;;;;;;;6.15;2.13;;;;;;;;;;3566711;40;20057;-68
2021/08/20 13:14:33;;;;;;;4.80;2.33;;;;;;;;;;3568132;40;20048;-68
2021/08/20 13:16:59;;;;;;;2.90;1.83;;;;;;;;;;3569056;40;20033;-68
2021/08/20 13:19:25;;;;;;;3.10;2.08;;;;;;;;;;3567533;40;20077;-68
2021/08/20 13:21:51;;;;;;;4.03;2.72;;;;;;;;;;3567605;40;20609;-67
2021/08/20 13:24:17;;;;;;;2.90;2.13;;;;;;;;;;3566216;40;20036;-68
2021/08/20 13:26:43;;;;;;;4.57;2.10;;;;;;;;;;3567336;40;20405;-68
2021/08/20 13:29:09;;;;;;;3.70;1.90;;;;;;;;;;3565901;40;20030;-67
2021/08/20 13:31:35;;;;;;;3.72;2.40;;;;;;;;;;3568489;40;20037;-67
2021/08/20 13:34:01;;;;;;;8.80;3.05;;;;;;;;;;3568533;40;20017;-68
2021/08/20 13:36:27;;;;;;;5.18;2.58;;;;;;;;;;3569148;40;20029;-68
2021/08/20 13:38:53;;;;;;;5.50;3.08;;;;;;;;;;3567296;40;20677;-68
2021/08/20 13:41:19;;;;;;;6.45;3.55;;;;;;;;;;3568537;40;20130;-68
2021/08/20 13:43:45;;;;;;;4.18;2.70;;;;;;;;;;3567430;40;20041;-67
2021/08/20 13:46:11;;;;;;;6.55;3.03;;;;;;;;;;3569221;40;20033;-66
2021/08/20 13:48:37;;;;;;;6.28;3.15;;;;;;;;;;3566806;40;20067;-66
2021/08/20 13:51:03;;;;;;;6.18;3.40;;;;;;;;;;3565990;40;20602;-66
2021/08/20 13:53:29;;;;;;;6.88;3.70;;;;;;;;;;3565192;40;20037;-67
2021/08/20 13:55:55;;;;;;;7.70;3.95;;;;;;;;;;3566259;40;20028;-67
2021/08/20 13:58:22;;;;;;;8.85;3.55;;;;;;;;;;3564995;40;20034;-67
2021/08/20 14:00:48;;;;;;;6.43;4.15;;;;;;;;;;3565957;40;20696;-67
2021/08/20 14:03:14;;;;;;;10.65;4.60;;;;;;;;;;3564621;40;20644;-67
2021/08/20 14:05:40;;;;;;;15.65;3.65;;;;;;;;;;3565687;40;20051;-67
2021/08/20 14:08:07;;;;;;;11.80;4.40;;;;;;;;;;3566553;40;20127;-67
2021/08/20 14:10:33;;;;;;;6.45;3.28;;;;;;;;;;3565833;40;20544;-67
2021/08/20 14:12:59;;;;;;;12.93;3.92;;;;;;;;;;3566383;40;20025;-67
2021/08/20 14:15:25;;;;;;;5.75;3.80;;;;;;;;;;3567532;40;20036;-67
2021/08/20 14:17:51;;;;;;;5.93;3.60;;;;;;;;;;3565817;40;20084;-67
2021/08/20 14:20:18;;;;;;;13.75;4.32;;;;;;;;;;3564475;40;20048;-67
2021/08/20 14:22:46;;;;;;;7.72;3.75;;;;;;;;;;3565407;40;20052;-67